createdAt,value
2023-02-08T00:00:57.579Z,14.85
2023-02-08T00:03:29.242Z,14.50
2023-02-08T00:05:56.534Z,13.95
2023-02-08T00:08:23.446Z,14.40
2023-02-08T00:10:50.779Z,14.15
2023-02-08T00:13:17.969Z,13.73
2023-02-08T00:15:46.324Z,14.85
2023-02-08T00:18:14.128Z,14.80
2023-02-08T00:20:44.638Z,13.57
2023-02-08T00:23:13.228Z,14.68
2023-02-08T00:25:41.864Z,14.32
2023-02-08T00:28:13.351Z,14.70
2023-02-08T00:30:43.097Z,15.32
2023-02-08T00:33:10.609Z,15.15
2023-02-08T00:35:37.826Z,14.15
2023-02-08T00:38:04.899Z,15.00
2023-02-08T00:40:32.117Z,17.05
2023-02-08T00:42:58.992Z,14.13
2023-02-08T00:45:26.413Z,14.85
2023-02-08T00:47:53.273Z,14.50
2023-02-08T00:50:21.697Z,15.07
2023-02-08T00:52:48.672Z,13.82
2023-02-08T00:55:16.009Z,15.07
2023-02-08T00:57:43.161Z,14.23
2023-02-08T01:00:11.631Z,14.35
2023-02-08T01:02:39.409Z,14.82
2023-02-08T01:05:07.372Z,14.35
2023-02-08T01:07:39.850Z,14.23
2023-02-08T01:10:09.452Z,13.50
2023-02-08T01:12:36.504Z,14.93
2023-02-08T01:15:04.246Z,15.73
2023-02-08T01:17:31.601Z,15.07
2023-02-08T01:19:58.980Z,14.75
2023-02-08T01:22:25.946Z,14.90
2023-02-08T01:24:53.618Z,16.33
2023-02-08T01:27:20.537Z,15.82
2023-02-08T01:29:47.791Z,15.55
2023-02-08T01:32:14.765Z,16.27
2023-02-08T01:34:44.042Z,17.13
2023-02-08T01:37:11.086Z,15.98
2023-02-08T01:39:38.342Z,15.10
2023-02-08T01:42:05.389Z,15.40
2023-02-08T01:45:10.431Z,16.42
2023-02-08T01:47:37.482Z,14.88
2023-02-08T01:50:06.023Z,15.73
2023-02-08T01:52:33.398Z,15.20
2023-02-08T01:55:06.500Z,16.48
2023-02-08T01:57:33.512Z,15.93
2023-02-08T02:00:22.465Z,14.82
2023-02-08T02:02:55.808Z,14.95
2023-02-08T02:05:28.229Z,15.20
2023-02-08T02:07:57.749Z,16.73
2023-02-08T02:10:31.885Z,16.08
2023-02-08T02:13:04.256Z,14.75
2023-02-08T02:15:33.333Z,15.68
2023-02-08T02:18:01.538Z,15.77
2023-02-08T02:20:28.667Z,15.43
2023-02-08T02:23:31.507Z,17.67
2023-02-08T02:26:20.021Z,16.58
2023-02-08T02:28:58.873Z,15.48
2023-02-08T02:31:36.844Z,16.05
2023-02-08T02:34:13.952Z,17.42
2023-02-08T02:36:51.880Z,16.77
2023-02-08T02:39:50.181Z,18.33
2023-02-08T02:42:53.108Z,15.27
2023-02-08T02:45:29.770Z,16.35
2023-02-08T02:48:10.375Z,17.45
2023-02-08T02:50:45.437Z,16.38
2023-02-08T02:53:34.302Z,16.85
2023-02-08T02:56:09.352Z,16.63
2023-02-08T02:58:38.600Z,16.55
2023-02-08T03:01:05.569Z,17.02
2023-02-08T03:03:34.620Z,17.02
2023-02-08T03:06:06.475Z,17.60
2023-02-08T03:08:55.698Z,16.67
2023-02-08T03:11:27.838Z,15.90
2023-02-08T03:14:13.608Z,16.25
2023-02-08T03:17:03.404Z,17.08
2023-02-08T03:19:42.725Z,16.02
2023-02-08T03:22:28.439Z,18.02
2023-02-08T03:25:02.194Z,16.48
2023-02-08T03:27:58.663Z,16.45
2023-02-08T03:30:53.298Z,15.45
2023-02-08T03:33:36.025Z,16.48
2023-02-08T03:36:05.598Z,16.73
2023-02-08T03:38:37.979Z,17.27
2023-02-08T03:41:07.983Z,15.73
2023-02-08T03:43:42.765Z,16.88
2023-02-08T03:46:16.286Z,15.70
2023-02-08T03:48:49.419Z,15.38
2023-02-08T03:51:17.799Z,16.27
2023-02-08T03:53:46.949Z,16.08
2023-02-08T03:56:35.982Z,16.63
2023-02-08T03:59:07.540Z,16.05
2023-02-08T04:01:58.442Z,17.23
2023-02-08T04:04:28.598Z,16.73
2023-02-08T04:06:56.413Z,15.57
2023-02-08T04:09:23.431Z,17.08
2023-02-08T04:11:50.923Z,16.58
2023-02-08T04:14:17.863Z,16.90
2023-02-08T04:16:45.279Z,16.83
2023-02-08T04:19:12.508Z,17.65
2023-02-08T04:21:39.725Z,18.23
2023-02-08T04:24:06.878Z,16.42
2023-02-08T04:26:34.980Z,17.13
2023-02-08T04:29:01.921Z,17.20
2023-02-08T04:31:29.225Z,17.58
2023-02-08T04:33:56.188Z,16.70
2023-02-08T04:36:23.335Z,19.02
2023-02-08T04:38:50.342Z,17.85
2023-02-08T04:41:17.729Z,18.50
2023-02-08T04:43:44.668Z,18.17
2023-02-08T04:46:12.004Z,19.08
2023-02-08T04:48:39.198Z,18.98
2023-02-08T04:51:06.589Z,19.60
2023-02-08T04:53:33.480Z,19.33
2023-02-08T04:56:00.871Z,18.42
2023-02-08T04:58:27.824Z,18.27
2023-02-08T05:00:54.969Z,17.85
2023-02-08T05:03:21.968Z,20.10
2023-02-08T05:05:57.637Z,19.25
2023-02-08T05:08:24.725Z,20.13
2023-02-08T05:10:52.056Z,19.98
2023-02-08T05:13:18.957Z,19.85
2023-02-08T05:15:46.202Z,21.98
2023-02-08T05:18:13.354Z,19.75
2023-02-08T05:20:40.900Z,19.15
2023-02-08T05:23:07.941Z,19.40
2023-02-08T05:25:35.211Z,20.45
2023-02-08T05:28:02.144Z,19.48
2023-02-08T05:30:29.337Z,20.50
2023-02-08T05:32:56.268Z,21.52
2023-02-08T05:35:23.494Z,22.02
2023-02-08T05:37:50.364Z,23.08
2023-02-08T05:40:17.570Z,21.83
2023-02-08T05:42:44.642Z,23.13
2023-02-08T05:45:12.023Z,22.42
2023-02-08T05:47:39.045Z,21.40
2023-02-08T05:50:06.814Z,23.20
2023-02-08T05:52:33.813Z,22.10
2023-02-08T05:55:01.056Z,22.55
2023-02-08T05:57:30.791Z,21.92
2023-02-08T05:59:58.433Z,23.02
2023-02-08T06:02:25.461Z,23.25
2023-02-08T06:04:52.761Z,22.27
2023-02-08T06:07:19.631Z,23.20
2023-02-08T06:09:48.522Z,24.60
2023-02-08T06:12:15.713Z,23.10
2023-02-08T06:14:42.877Z,24.10
2023-02-08T06:17:09.785Z,24.23
2023-02-08T06:19:36.955Z,23.23
2023-02-08T06:22:03.903Z,25.52
2023-02-08T06:24:31.213Z,24.27
2023-02-08T06:26:58.127Z,24.13
2023-02-08T06:29:25.392Z,24.13
2023-02-08T06:31:52.356Z,23.10
2023-02-08T06:34:19.641Z,23.73
2023-02-08T06:36:47.054Z,24.15
2023-02-08T06:39:14.552Z,24.13
2023-02-08T06:41:41.508Z,27.42
2023-02-08T06:44:08.945Z,25.13
2023-02-08T06:46:36.143Z,24.90
2023-02-08T06:49:03.606Z,25.63
2023-02-08T06:51:30.597Z,24.10
2023-02-08T06:53:57.983Z,24.98
2023-02-08T06:56:25.127Z,25.33
2023-02-08T06:58:52.361Z,23.77
2023-02-08T07:01:19.353Z,24.35
2023-02-08T07:03:46.774Z,25.00
2023-02-08T07:06:16.507Z,24.13
2023-02-08T07:08:44.052Z,23.25
2023-02-08T07:11:13.542Z,23.10
2023-02-08T07:13:41.077Z,23.38
2023-02-08T07:16:09.847Z,22.42
2023-02-08T07:18:37.509Z,22.15
2023-02-08T07:21:05.282Z,23.20
2023-02-08T07:23:33.011Z,21.65
2023-02-08T07:26:02.608Z,20.55
2023-02-08T07:28:30.477Z,21.48
2023-02-08T07:30:57.645Z,20.55
2023-02-08T07:33:25.554Z,20.30
2023-02-08T07:35:52.507Z,20.85
2023-02-08T07:38:20.827Z,18.75
2023-02-08T07:40:48.153Z,19.42
2023-02-08T07:43:15.392Z,20.25
2023-02-08T07:45:52.487Z,19.40
2023-02-08T07:48:19.919Z,18.70
2023-02-08T07:50:46.831Z,18.85
2023-02-08T07:53:14.048Z,18.80
2023-02-08T07:55:40.998Z,17.85
2023-02-08T07:58:08.149Z,18.75
2023-02-08T08:00:35.092Z,18.23
2023-02-08T08:03:02.659Z,17.35
2023-02-08T08:05:29.704Z,18.58
2023-02-08T08:07:57.167Z,17.77
2023-02-08T08:10:24.375Z,16.80
2023-02-08T08:12:51.757Z,17.73
2023-02-08T08:15:18.772Z,16.83
2023-02-08T08:17:46.275Z,17.52
2023-02-08T08:20:13.139Z,16.65
2023-02-08T08:22:40.389Z,17.73
2023-02-08T08:25:07.534Z,17.95
2023-02-08T08:27:35.260Z,16.40
2023-02-08T08:30:02.362Z,15.93
2023-02-08T08:32:29.696Z,16.42
2023-02-08T08:34:56.646Z,16.88
2023-02-08T08:37:23.855Z,17.67
2023-02-08T08:39:50.918Z,17.48
2023-02-08T08:42:18.391Z,15.45
2023-02-08T08:44:45.648Z,16.90
2023-02-08T08:47:13.611Z,15.95
2023-02-08T08:49:40.641Z,16.98
2023-02-08T08:52:08.421Z,18.38
2023-02-08T08:54:35.626Z,17.30
2023-02-08T08:57:03.848Z,16.80
2023-02-08T08:59:31.220Z,16.55
2023-02-08T09:01:58.597Z,16.92
2023-02-08T09:04:26.032Z,16.67
2023-02-08T09:06:54.476Z,17.23
2023-02-08T09:09:22.666Z,16.48
2023-02-08T09:11:50.464Z,18.10
2023-02-08T09:14:17.426Z,17.05
2023-02-08T09:16:48.105Z,15.90
2023-02-08T09:19:16.294Z,17.23
2023-02-08T09:21:43.761Z,17.10
2023-02-08T09:24:10.751Z,15.63
2023-02-08T09:26:38.900Z,17.48
2023-02-08T09:29:06.811Z,16.48
2023-02-08T09:31:39.560Z,16.48
2023-02-08T09:34:07.630Z,16.42
2023-02-08T09:36:38.315Z,14.27
2023-02-08T09:39:10.822Z,13.73
2023-02-08T09:41:52.900Z,14.93
2023-02-08T09:44:47.298Z,14.93
2023-02-08T09:47:34.655Z,13.98
2023-02-08T09:50:18.695Z,12.13
2023-02-08T09:52:54.518Z,13.02
2023-02-08T09:55:58.565Z,12.50
2023-02-08T09:58:39.326Z,9.65
2023-02-08T10:01:21.075Z,10.75
2023-02-08T10:03:52.394Z,10.68
2023-02-08T10:08:51.273Z,10.23
2023-02-08T10:11:43.442Z,9.65
2023-02-08T10:14:44.035Z,10.50
2023-02-08T10:17:46.724Z,8.90
2023-02-08T10:20:41.062Z,9.68
2023-02-08T10:23:22.525Z,8.73
2023-02-08T10:26:08.355Z,8.98
2023-02-08T10:28:41.322Z,8.45
2023-02-08T10:31:17.766Z,7.50
2023-02-08T10:34:12.816Z,8.27
2023-02-08T10:36:42.157Z,9.93
2023-02-08T10:39:26.637Z,8.68
2023-02-08T10:41:54.612Z,8.13
2023-02-08T10:44:36.696Z,7.22
2023-02-08T10:47:35.588Z,6.10
2023-02-08T10:50:12.714Z,6.50
2023-02-08T10:52:40.124Z,4.70
2023-02-08T10:55:16.660Z,6.45
2023-02-08T10:57:50.292Z,4.22
2023-02-08T11:00:25.308Z,4.88
2023-02-08T11:02:53.758Z,4.03
2023-02-08T11:05:31.351Z,4.82
2023-02-08T11:08:12.279Z,3.72
2023-02-08T11:10:41.127Z,3.72
2023-02-08T11:13:15.157Z,4.10
2023-02-08T11:15:56.107Z,4.30
2023-02-08T11:18:40.002Z,4.35
2023-02-08T11:21:29.551Z,4.32
2023-02-08T11:23:58.134Z,4.18
2023-02-08T11:26:30.992Z,4.05
2023-02-08T11:29:23.281Z,4.90
2023-02-08T11:31:53.842Z,5.45
2023-02-08T11:34:30.820Z,3.88
2023-02-08T11:36:59.841Z,3.63
2023-02-08T11:39:34.856Z,4.43
2023-02-08T11:42:03.141Z,5.65
2023-02-08T11:44:43.720Z,5.65
2023-02-08T11:47:16.722Z,5.78
2023-02-08T11:50:02.112Z,5.93
2023-02-08T11:52:42.584Z,6.22
2023-02-08T11:55:31.173Z,6.70
2023-02-08T11:58:06.179Z,5.82
2023-02-08T12:00:36.010Z,6.32
2023-02-08T12:03:18.284Z,6.07
2023-02-08T12:06:03.615Z,6.53
2023-02-08T12:08:40.277Z,5.78
2023-02-08T12:11:17.268Z,5.97
2023-02-08T12:14:27.703Z,7.05
2023-02-08T12:17:09.357Z,6.03
2023-02-08T12:20:05.284Z,7.53
2023-02-08T12:22:39.722Z,5.38
2023-02-08T12:25:27.768Z,5.38
2023-02-08T12:28:37.866Z,4.90
2023-02-08T12:31:23.546Z,4.85
2023-02-08T12:34:02.030Z,5.20
2023-02-08T12:37:26.374Z,5.03
2023-02-08T12:40:48.660Z,5.53
2023-02-08T12:43:22.720Z,5.05
2023-02-08T12:45:56.866Z,4.28
2023-02-08T12:48:56.783Z,5.63
2023-02-08T12:54:44.930Z,5.22
2023-02-08T12:57:16.106Z,4.78
2023-02-08T12:59:59.440Z,5.43
2023-02-08T13:02:44.608Z,5.25
2023-02-08T13:05:22.541Z,4.68
2023-02-08T13:08:01.880Z,5.28
2023-02-08T13:10:39.533Z,5.10
2023-02-08T13:13:16.503Z,5.30
2023-02-08T13:15:53.098Z,5.20
2023-02-08T13:18:25.546Z,3.80
2023-02-08T13:20:55.556Z,4.60
2023-02-08T13:23:25.258Z,4.65
2023-02-08T13:25:57.351Z,4.68
2023-02-08T13:28:26.175Z,5.05
2023-02-08T13:31:20.255Z,4.80
2023-02-08T13:34:01.582Z,7.35
2023-02-08T13:36:34.032Z,4.43
2023-02-08T13:39:05.800Z,4.80
2023-02-08T13:41:34.836Z,4.90
2023-02-08T13:44:09.038Z,5.72
2023-02-08T13:46:48.126Z,6.10
2023-02-08T13:49:43.723Z,4.97
2023-02-08T13:52:12.893Z,4.90
2023-02-08T13:54:40.465Z,7.13
2023-02-08T13:58:00.439Z,6.30
2023-02-08T14:00:37.814Z,6.22
2023-02-08T14:03:07.949Z,5.30
2023-02-08T14:06:01.370Z,5.30
2023-02-08T14:08:40.685Z,5.63
2023-02-08T14:11:26.985Z,6.35
2023-02-08T14:14:21.286Z,6.18
2023-02-08T14:17:03.986Z,7.20
2023-02-08T14:19:33.760Z,6.93
2023-02-08T14:22:14.464Z,6.90
2023-02-08T14:24:49.817Z,7.10
2023-02-08T14:27:20.541Z,5.68
2023-02-08T14:30:04.437Z,6.07
2023-02-08T14:32:35.722Z,7.22
2023-02-08T14:35:11.689Z,6.13
2023-02-08T14:37:40.163Z,5.80
2023-02-08T14:40:25.103Z,5.82
2023-02-08T14:43:01.664Z,6.60
2023-02-08T14:45:33.224Z,6.28
2023-02-08T14:48:30.428Z,6.35
2023-02-08T14:51:06.767Z,6.63
2023-02-08T14:53:52.839Z,6.70
2023-02-08T14:56:26.017Z,6.57
2023-02-08T14:59:00.868Z,6.47
2023-02-08T15:01:28.528Z,5.78
2023-02-08T15:04:01.885Z,6.32
2023-02-08T15:06:38.624Z,6.40
2023-02-08T15:09:19.247Z,7.90
2023-02-08T15:12:04.337Z,6.75
2023-02-08T15:14:36.215Z,6.50
2023-02-08T15:19:40.055Z,7.07
2023-02-08T15:22:31.236Z,8.55
2023-02-08T15:25:02.451Z,7.65
2023-02-08T15:27:34.800Z,7.43
2023-02-08T15:30:02.375Z,8.57
2023-02-08T15:32:30.802Z,7.28
2023-02-08T15:35:02.654Z,7.75
2023-02-08T15:37:34.779Z,8.33
2023-02-08T15:40:04.949Z,7.72
2023-02-08T15:42:35.913Z,8.23
2023-02-08T15:45:04.666Z,8.45
2023-02-08T15:47:37.961Z,8.57
2023-02-08T15:50:08.556Z,8.75
2023-02-08T15:52:37.702Z,8.57
2023-02-08T15:55:10.529Z,8.80
2023-02-08T15:58:02.900Z,9.50
2023-02-08T16:00:33.253Z,8.48
2023-02-08T16:03:08.873Z,9.13
2023-02-08T16:05:38.206Z,9.40
2023-02-08T16:08:06.852Z,9.27
2023-02-08T16:10:36.915Z,8.55
2023-02-08T16:13:31.763Z,9.25
2023-02-08T16:16:33.639Z,10.10
2023-02-08T16:19:04.847Z,9.75
2023-02-08T16:21:39.343Z,9.60
2023-02-08T16:24:09.029Z,10.30
2023-02-08T16:26:59.847Z,9.88
2023-02-08T16:29:46.499Z,10.18
2023-02-08T16:32:31.835Z,10.88
2023-02-08T16:35:01.558Z,9.90
2023-02-08T16:37:35.423Z,10.55
2023-02-08T16:40:24.687Z,10.48
2023-02-08T16:42:52.758Z,9.85
2023-02-08T16:45:22.608Z,10.32
2023-02-08T16:48:04.252Z,10.07
2023-02-08T16:50:41.007Z,10.65
2023-02-08T16:53:12.546Z,11.57
2023-02-08T16:55:39.859Z,9.68
2023-02-08T16:58:15.875Z,9.43
2023-02-08T17:00:43.991Z,9.88
2023-02-08T17:03:12.145Z,10.05
2023-02-08T17:05:41.180Z,9.73
2023-02-08T17:08:16.516Z,10.02
2023-02-08T17:10:44.551Z,9.38
2023-02-08T17:13:21.208Z,10.77
2023-02-08T17:15:50.769Z,9.88
2023-02-08T17:18:18.511Z,11.48
2023-02-08T17:20:46.186Z,11.27
2023-02-08T17:23:15.862Z,10.90
2023-02-08T17:25:43.835Z,10.40
2023-02-08T17:28:21.214Z,9.77
2023-02-08T17:30:50.329Z,10.95
2023-02-08T17:33:18.540Z,10.52
2023-02-08T17:35:47.822Z,11.07
2023-02-08T17:38:16.158Z,10.23
2023-02-08T17:40:44.505Z,11.70
2023-02-08T17:43:13.073Z,10.80
2023-02-08T17:45:42.469Z,9.20
2023-02-08T17:48:10.163Z,9.98
2023-02-08T17:50:37.155Z,11.23
2023-02-08T17:53:04.531Z,10.57
2023-02-08T17:55:31.720Z,10.50
2023-02-08T17:57:59.134Z,10.77
2023-02-08T18:00:26.585Z,10.90
2023-02-08T18:02:55.641Z,11.13
2023-02-08T18:05:26.065Z,11.70
2023-02-08T18:07:55.852Z,13.23
2023-02-08T18:10:24.942Z,13.82
2023-02-08T18:12:52.434Z,11.52
2023-02-08T18:15:21.688Z,11.73
2023-02-08T18:17:50.664Z,12.05
2023-02-08T18:20:18.530Z,11.98
2023-02-08T18:22:46.187Z,11.93
2023-02-08T18:25:14.540Z,11.80
2023-02-08T18:27:42.003Z,13.63
2023-02-08T18:30:10.974Z,13.75
2023-02-08T18:32:39.227Z,12.40
2023-02-08T18:35:08.862Z,12.90
2023-02-08T18:37:37.685Z,12.32
2023-02-08T18:40:06.883Z,13.70
2023-02-08T18:42:36.057Z,12.50
2023-02-08T18:45:05.160Z,13.98
2023-02-08T18:47:32.762Z,12.82
2023-02-08T18:49:59.702Z,13.55
2023-02-08T18:52:27.377Z,12.90
2023-02-08T18:54:54.496Z,12.90
2023-02-08T18:57:22.174Z,14.13
2023-02-08T18:59:49.573Z,12.68
2023-02-08T19:02:21.000Z,13.32
2023-02-08T19:07:16.397Z,13.40
2023-02-08T19:09:44.186Z,13.65
2023-02-08T19:12:15.555Z,13.93
2023-02-08T19:14:44.017Z,14.23
2023-02-08T19:17:14.369Z,14.00
2023-02-08T19:19:42.090Z,14.77
2023-02-08T19:22:09.698Z,15.13
2023-02-08T19:24:37.816Z,15.73
2023-02-08T19:27:05.612Z,15.60
2023-02-08T19:29:34.553Z,14.10
2023-02-08T19:32:02.202Z,15.70
2023-02-08T19:34:29.565Z,14.32
2023-02-08T19:36:56.820Z,15.77
2023-02-08T19:39:26.709Z,15.80
2023-02-08T19:41:54.687Z,14.40
2023-02-08T19:44:22.796Z,15.38
2023-02-08T19:46:55.054Z,14.50
2023-02-08T19:49:25.883Z,17.50
2023-02-08T19:54:21.345Z,13.80
2023-02-08T19:56:50.535Z,15.73
2023-02-08T19:59:26.535Z,16.73
2023-02-08T20:01:54.929Z,15.88
2023-02-08T20:04:22.383Z,17.80
2023-02-08T20:06:53.269Z,19.10
2023-02-08T20:09:20.751Z,19.90
2023-02-08T20:11:56.826Z,20.00
2023-02-08T20:14:25.214Z,19.25
2023-02-08T20:16:52.645Z,18.75
2023-02-08T20:19:19.732Z,19.65
2023-02-08T20:21:47.454Z,19.70
2023-02-08T20:24:14.806Z,19.30
2023-02-08T20:26:45.215Z,19.60
2023-02-08T20:29:13.664Z,19.30
2023-02-08T20:31:43.766Z,21.13
2023-02-08T20:34:13.775Z,19.92
2023-02-08T20:36:49.600Z,18.25
2023-02-08T20:39:20.773Z,18.77
2023-02-08T20:41:48.274Z,18.80
2023-02-08T20:44:18.157Z,17.88
2023-02-08T20:46:46.644Z,18.80
2023-02-08T20:49:15.412Z,18.63
2023-02-08T20:51:43.527Z,17.77
2023-02-08T20:54:11.241Z,19.23
2023-02-08T20:56:39.678Z,18.52
2023-02-08T20:59:08.856Z,19.67
2023-02-08T21:01:37.086Z,19.10
2023-02-08T21:04:05.114Z,18.70
2023-02-08T21:06:35.398Z,18.45
2023-02-08T21:09:08.579Z,17.90
2023-02-08T21:11:37.149Z,18.02
2023-02-08T21:14:05.477Z,18.23
2023-02-08T21:16:33.195Z,19.08
2023-02-08T21:19:01.096Z,19.85
2023-02-08T21:21:29.042Z,21.05
2023-02-08T21:23:57.925Z,21.17
2023-02-08T21:26:26.077Z,20.92
2023-02-08T21:28:57.010Z,22.17
2023-02-08T21:31:25.227Z,25.75
2023-02-08T21:33:53.025Z,24.42
2023-02-08T21:36:23.149Z,25.10
2023-02-08T21:38:51.373Z,27.42
2023-02-08T21:41:23.149Z,27.85
2023-02-08T21:43:51.354Z,28.98
2023-02-08T21:46:18.785Z,30.48
2023-02-08T21:49:04.847Z,28.75
2023-02-08T21:52:04.352Z,27.20
2023-02-08T21:54:42.852Z,29.17
2023-02-08T21:57:37.900Z,29.23
2023-02-08T22:00:08.206Z,29.70
2023-02-08T22:02:39.940Z,29.52
2023-02-08T22:05:25.878Z,29.10
2023-02-08T22:07:56.670Z,29.88
2023-02-08T22:10:27.548Z,29.27
2023-02-08T22:12:55.721Z,30.80
2023-02-08T22:15:24.560Z,31.10
2023-02-08T22:18:00.248Z,30.00
2023-02-08T22:20:28.472Z,31.77
2023-02-08T22:22:56.472Z,32.08
2023-02-08T22:25:23.691Z,35.53
2023-02-08T22:27:51.097Z,37.03
2023-02-08T22:30:21.826Z,37.55
2023-02-08T22:35:18.400Z,36.38
2023-02-08T22:37:45.606Z,37.13
2023-02-08T22:40:12.923Z,38.08
2023-02-08T22:42:41.236Z,38.85
2023-02-08T22:45:09.024Z,38.03
2023-02-08T22:47:36.743Z,35.50
2023-02-08T22:50:04.989Z,33.42
2023-02-08T22:52:34.421Z,32.45
2023-02-08T22:55:04.057Z,30.92
2023-02-08T22:57:33.066Z,32.15
2023-02-08T23:00:00.272Z,33.72
2023-02-08T23:02:28.082Z,27.15
2023-02-08T23:04:55.499Z,27.33
2023-02-08T23:07:23.022Z,22.40
2023-02-08T23:09:50.040Z,25.50
2023-02-08T23:12:17.592Z,25.70
2023-02-08T23:14:44.819Z,24.63
2023-02-08T23:17:12.128Z,22.52
2023-02-08T23:19:40.725Z,24.88
2023-02-08T23:22:09.043Z,23.73
2023-02-08T23:24:35.976Z,25.73
2023-02-08T23:27:03.325Z,24.08
2023-02-08T23:29:48.593Z,22.55
2023-02-08T23:32:16.198Z,24.85
2023-02-08T23:34:43.070Z,23.02
2023-02-08T23:37:10.539Z,24.83
2023-02-08T23:39:37.396Z,24.30
2023-02-08T23:42:05.818Z,25.50
2023-02-08T23:44:32.941Z,25.83
2023-02-08T23:47:00.311Z,25.10
2023-02-08T23:49:27.195Z,24.50
2023-02-08T23:51:54.738Z,24.98
2023-02-08T23:54:21.686Z,24.70
2023-02-08T23:56:48.873Z,25.52
2023-02-08T23:59:16.761Z,26.20
